Aviation Digital Data Service (ADDS)

Output produced by METARs form (1639 UTC 02 September 2014)
found at http://aviationweather.gov/adds/metars/
 
KISP 021431Z 0215/0312 22007KT P6SM SCT050 SCT100 
     FM021900 19010KT P6SM SCT050 
     FM030500 25008KT P6SM SCT050 BKN150 
     FM030900 33005KT P6SM SCT150